• Join FlightAware (Why Join?)
  • Login
  • US Flag 
09:14AM EDT


 

Airport Tracker/Info


-or-


 

Live Flight TrackerFlight Track Log ✈ CHQ6089 ✈ 26-Jul-2013 ✈ KSDF - KLGA

Flight Track Log - Related Links

Times and Time Zones

All times are in EDT time to prevent confusion due to time zone crossing. See the CHQ6089 flight status page for this flight to view local times or setup timezone preferences in your user account.

Time Position Orientation Groundspeed Altitude Reporting Facility
EDT Latitude Longitude Course Direction KTS MPH feet Rate Location/Type
06:11AM 38.1303 -85.7128 99° East 171 197 31,000  Level Indianapolis Center
06:12AM 38.0850 -85.6800 150° Southeast 220 253 4,400 -12,060 Descending Indianapolis Center
06:13AM 38.0667 -85.3832 90° East  Level FlightAware Approximate
06:13AM 38.0811 -85.6006 94° East 228 262 6,700  Level Indianapolis Center
06:14AM 38.0595 -85.2438 103° East  Level FlightAware Approximate
06:14AM 38.0781 -85.5111 92° East 252 290 8,600  Level Indianapolis Center
06:15AM 38.0346 -85.1070 103° East  Level FlightAware Approximate
06:15AM 38.0753 -85.4125 92° East 276 318 10,700  Level Indianapolis Center
06:16AM 38.0196 -84.9736 99° East  Level FlightAware Approximate
06:16AM 38.0697 -85.3083 94° East 293 337 12,400  Level Indianapolis Center
06:17AM 38.0642 -85.1919 93° East 314 361 13,900 1,500 Climbing Indianapolis Center
06:18AM 38.0581 -85.0772 94° East 330 380 15,500 1,500 Climbing Indianapolis Center
06:19AM 38.0514 -84.9558 94° East 341 392 17,000 1,380 Climbing Indianapolis Center
06:20AM 38.0444 -84.8322 94° East 346 398 18,400 1,380 Climbing Indianapolis Center
06:21AM 38.0372 -84.7081 94° East 351 404 19,900 1,440 Climbing Indianapolis Center
06:22AM 38.0300 -84.5814 94° East 359 413 21,400 1,440 Climbing Indianapolis Center
06:23AM 38.0231 -84.4539 94° East 361 415 22,900 1,440 Climbing Indianapolis Center
06:24AM 38.0147 -84.3253 95° East 364 419 24,400 1,440 Climbing Indianapolis Center
06:25AM 38.0069 -84.1961 94° East 366 421 25,900 1,440 Climbing Indianapolis Center
06:26AM 37.9992 -84.0658 94° East 368 423 27,400 1,440 Climbing Indianapolis Center
06:27AM 37.9911 -83.9350 94° East 369 425 28,900 1,440 Climbing Indianapolis Center
06:28AM 37.9842 -83.8022 94° East 377 434 30,400 1,020 Climbing Indianapolis Center
06:29AM 37.9758 -83.6711 95° East 375 432 31,000 240 Climbing Indianapolis Center
06:30AM 37.9656 -83.5242 95° East 411 473 31,000  Level Indianapolis Center
06:31AM 37.9542 -83.3706 95° East 430 495 31,000  Level Indianapolis Center
06:32AM 37.9436 -83.2056 95° East 457 526 31,000  Level Indianapolis Center
06:33AM 37.9322 -83.0478 95° East 453 521 31,000  Level Indianapolis Center
06:34AM 37.9214 -82.8953 95° East 440 506 31,000  Level Indianapolis Center
06:35AM 37.9108 -82.7372 95° East 445 512 31,000  Level Indianapolis Center
06:36AM 37.8997 -82.5817 95° East 443 510 31,000  Level Indianapolis Center
06:37AM 37.8869 -82.4247 96° East 446 513 31,000  Level Indianapolis Center
06:38AM 37.8756 -82.2656 95° East 451 519 31,000  Level Indianapolis Center
06:39AM 37.8611 -82.0861 96° East 456 525 31,000  Level Indianapolis Center
06:40AM 37.8475 -81.9275 96° East 456 525 31,000  Level Indianapolis Center
06:41AM 37.8356 -81.7719 96° East 450 518 31,000  Level Indianapolis Center
06:42AM 37.8239 -81.6344 96° East 443 510 31,000  Level Indianapolis Center
06:43AM 37.8094 -81.4703 96° East 439 505 31,000  Level Indianapolis Center
06:44AM 37.7972 -81.3214 96° East 439 505 31,000  Level Indianapolis Center
06:45AM 37.7842 -81.1739 96° East 434 499 31,000  Level Indianapolis Center
06:46AM 37.7892 -80.9994 88° East 426 490 31,000  Level Indianapolis Center
06:47AM 37.7989 -80.8528 85° East 430 495 31,000  Level Indianapolis Center
06:48AM 37.8078 -80.7061 86° East 431 496 31,000  Level Indianapolis Center
06:49AM 37.8172 -80.5603 85° East 433 498 31,000  Level Indianapolis Center
06:50AM 37.8269 -80.4089 85° East 435 501 31,000  Level Indianapolis Center
06:51AM 37.8372 -80.2308 86° East 435 501 31,000  Level Indianapolis Center
06:52AM 37.8464 -80.0808 86° East 437 503 31,000  Level Indianapolis Center
06:53AM 37.8556 -79.9297 86° East 439 505 31,000  Level Indianapolis Center
06:54AM 37.8644 -79.7781 86° East 441 507 31,000  Level Indianapolis Center
06:55AM 37.8725 -79.6264 86° East 440 506 31,000  Level Indianapolis Center
06:56AM 37.8808 -79.4728 86° East 444 511 31,000  Level Indianapolis Center
06:57AM 37.8931 -79.2889 85° East 438 504 31,000  Level Washington Center
06:58AM 37.9042 -79.1289 85° East 438 504 31,000  Level Washington Center
06:59AM 37.9192 -78.9769 83° East 438 504 31,000  Level Washington Center
07:00AM 37.9406 -78.8067 81° East 446 513 31,000  Level Washington Center
07:01AM 37.9589 -78.6547 81° East 446 513 31,000  Level Washington Center
07:02AM 37.9775 -78.5000 81° East 441 507 31,000  Level Washington Center
07:03AM 37.9936 -78.3506 82° East 441 507 31,000  Level Washington Center
07:04AM 38.0111 -78.2114 81° East 441 507 31,000  Level Washington Center
07:05AM 38.0183 -78.0719 86° East 441 507 31,000  Level Washington Center
07:06AM 38.0281 -77.9036 86° East 441 507 31,000  Level Washington Center
07:07AM 38.0664 -77.7467 73° East 419 482 31,000  Level Washington Center
07:08AM 38.1228 -77.6189 61° Northeast 419 482 31,000  Level Washington Center
07:09AM 38.1811 -77.4936 59° Northeast 409 471 31,000  Level Washington Center
07:10AM 38.2372 -77.3681 60° Northeast 409 471 31,000  Level Washington Center
07:11AM 38.2953 -77.2400 60° Northeast 409 471 31,000  Level Washington Center
07:12AM 38.3533 -77.1167 59° Northeast 409 471 31,000  Level Washington Center
07:13AM 38.4111 -76.9908 60° Northeast 409 471 31,000  Level Washington Center
07:14AM 38.4689 -76.8619 60° Northeast 409 471 31,000  Level Washington Center
07:15AM 38.5244 -76.7356 61° Northeast 409 471 31,000  Level Washington Center
07:16AM 38.5817 -76.6061 60° Northeast 409 471 31,000  Level Washington Center
07:17AM 38.6411 -76.4767 60° Northeast 415 478 31,000 -420 Level Washington Center
07:18AM 38.7025 -76.3392 60° Northeast 422 486 30,200 -900 Descending Washington Center
07:19AM 38.7803 -76.2122 52° Northeast 433 498 29,200 -1,020 Descending Washington Center
07:20AM 38.8517 -76.1061 49° Northeast 440 506 28,300 -960 Descending Washington Center
07:21AM 38.9314 -75.9811 51° Northeast 445 512 27,300 -660 Descending Washington Center
07:22AM 39.0131 -75.8561 50° Northeast 452 520 27,000 -600 Descending Washington Center
07:23AM 39.0944 -75.7333 49° Northeast 452 520 26,200 -960 Descending Washington Center
07:24AM 39.1739 -75.6131 50° Northeast 447 514 25,100 -1,080 Descending Washington Center
07:25AM 39.2572 -75.4950 48° Northeast 447 514 24,100 -1,020 Descending Washington Center
07:26AM 39.3550 -75.4092 34° Northeast 431 496 23,100 -1,080 Descending Washington Center
07:27AM 39.4550 -75.3228 34° Northeast 431 496 22,000 -1,140 Descending Washington Center
07:28AM 39.5506 -75.2336 36° Northeast 431 496 20,900 -1,380 Descending Washington Center
07:29AM 39.6461 -75.1414 37° Northeast 425 489 19,300 -1,620 Descending Washington Center
07:30AM 39.7497 -75.0517 34° Northeast 420 483 17,700 -1,680 Descending Washington Center
07:31AM 39.8308 -74.9808 34° Northeast 405 466 16,000 -1,860 Descending Washington Center
07:32AM 39.9281 -74.8908 35° Northeast 391 450 14,000 -1,920 Descending Washington Center
07:33AM 39.9833 -74.8167 46° Northeast 385 443 12,600 -1,620 Descending New York TRACON
07:34AM 40.0667 -74.7000 47° Northeast 363 418 11,000 -1,320 Descending New York TRACON
07:35AM 40.1167 -74.6167 52° Northeast 356 410 10,000 -540 Descending New York TRACON
07:36AM 40.1833 -74.5167 49° Northeast 357 411 10,000 -300 Level New York TRACON
07:37AM 40.2500 -74.4500 37° Northeast 293 337 9,500 -1,080 Descending New York TRACON
07:38AM 40.3000 -74.3667 52° Northeast 281 323 7,900 -1,260 Descending New York TRACON
07:39AM 40.3500 -74.3167 37° Northeast 256 295 7,000 -480 Descending New York TRACON
07:40AM 40.4000 -74.2667 37° Northeast 225 259 7,000  Level New York TRACON
07:41AM 40.4500 -74.2167 37° Northeast 232 267 7,000 -600 Level New York TRACON
07:42AM 40.5167 -74.1500 37° Northeast 223 257 5,800 -1,260 Descending New York TRACON
07:43AM 40.5500 -74.1000 49° Northeast 221 254 4,400 -900 Descending New York TRACON
07:44AM 40.6000 -74.0500 37° Northeast 212 244 4,000 -240 Descending New York TRACON
07:45AM 40.6500 -74.0167 27° Northeast 215 247 4,000  Level New York TRACON
07:46AM 40.7000 -73.9667 37° Northeast 210 242 4,000  Level New York TRACON
07:47AM 40.7167 -73.8833 75° East 220 253 4,000  Level New York TRACON
07:48AM 40.7500 -73.8333 49° Northeast 222 255 4,000  Level New York TRACON
07:49AM 40.7833 -73.7667 57° Northeast 216 249 4,000  Level New York TRACON
07:50AM 40.8167 -73.7000 57° Northeast 221 254 4,000 -600 Level New York TRACON
07:51AM 40.7833 -73.6333 123° Southeast 227 261 2,800 -960 Descending New York TRACON
07:52AM 40.7333 -73.6167 166° South 221 254 2,100 -480 Descending New York TRACON
07:53AM 40.7000 -73.6667 229° Southwest 201 231 2,000 -60 Descending New York TRACON
07:54AM 40.7167 -73.7333 288° West 167 192 2,000  Level New York TRACON